USTRANSCOM 7589


LPLA
Lajes Air Base
Terceira, PT
KWRI
Joint Base McGuire Dix Lakehurst
Wrightstown, US

Activity Log

Date Flight Route Aircraft Duration
05/22/2019 CMB809 LM H124 FRS H141 KOLIT 41N040W 41N050W 41N060W JOBOC LINND ZIGGY B752 5h 29m

Route Details

Aircraft Information
Primary: Boeing 757-200SF
Backup: Not Available
Route Data
Distance: 2185nm
Sched. Duration: 4h 29m
Avg. Duration: 5h 29m (+100m)
Times Flown: 1
Recm'd Route: Not Available
Planned Altitude: 36,000ft
Origin Wx: LPLA 271700Z /////KT 9999 FEW011 SCT020 20/16 Q1021
Dest. Wx: KWRI 271556Z AUTO 29020G35KT 10SM FEW048 05/M07 A2961 RMK AO2 PK WND 31038/18 SLP027 T00501066 $
Notes: USTRANSCOM CONTRACT FLIGHT

Financial History
Total Freight: 29,942lbs
Average Load: 29,942lbs/flt
Fuel Used: 43,200lbs
Avg. Fuel Used: 43,200lbs/flt
Fuel Expense: $34,560
Avg. Fuel Expense: $34,560
Avg. Fuel Cost: $0.80/lbs
Total Gross Income: $56,590
Pilot Pay: $229
Total Expenses: $6,164
Total Revenue: $14,552
Average Revenue: $56,590.38